Anton, TX

6:30 AM CDT on September 20, 2014 (GMT -0500)
Lubbock International | Change Station
CLOSE
Current Station
Airport
Location: Lubbock,
Elevation: 3241 ft
Nearby Weather Stations
Active Advisory: Areal Flood Watch

Elev 3241 ft 33.67 °N, 101.82 °W | Updated 15 minutes ago

Overcast
Overcast
68 °F
Feels Like 68 °F
N
4
Wind Variable Wind from ESE

Today
High -- | Low -- °F
--% Chance of Precip.
Yesterday
High -- | Low -- °F
Precip. -- in
7:35 AM 7:48 PM
Waning Crescent, 13% visible
Pressure 30.01 in
Visibility 10.0 miles
Clouds Mostly Cloudy 700 ft
Overcast 2600 ft
Dew Point 66 °F
Humidity 93%
Rainfall 0.22 in
Snow Depth Not available.
UV 0 out of 12
Pollen .90 out of 12
Air Quality Not available.
Flu Activity Not available.
SPECI KLBB 201115Z 12003KT 10SM BKN007 OVC026 20/19 A3001 RMK AO2 RAE02 CIG 003V008 BR ALQDS P0000 T02000189

More Conditions Fewer Conditions

Pressure 30.01 in
Visibility 10.0 miles
Clouds Mostly Cloudy 700 ft
Overcast 2600 ft
Dew Point 66 °F
Humidity 93%
Rainfall 0.22 in
Snow Depth Not available.
UV 0 out of 12
Pollen .90 out of 12
Air Quality Not available.
Flu Activity Not available.
SPECI KLBB 201115Z 12003KT 10SM BKN007 OVC026 20/19 A3001 RMK AO2 RAE02 CIG 003V008 BR ALQDS P0000 T02000189

More Conditions Fewer Conditions

Nowcast | as of 5:02 am CDT on September 20, 2014

Through 7 am...numerous rain showers will continue moving north across the South Plains and western rolling plains. Intermittent periods of moderate to heavy rain will occur with hourly rain rates of up to one quarter of an inch possible. Other locations will generally see less than a tenth of an inch.

×

10-Day Weather Forecast

Almanac

Astronomy

Sep. 20, 2014 Rise Set
Actual Time 7:35 AM CDT 7:48 PM CDT
Civil Twilight 7:10 AM CDT 8:12 PM CDT
Nautical Twilight 6:41 AM CDT 8:42 PM CDT
Astronomical Twilight 6:11 AM CDT 9:11 PM CDT
Moon 4:23 AM CDT 5:46 PM CDT
Length of Visible Light 13h 02m
Length of Day
12h 12m
Tomorrow will be 2m 4s shorter.
Waning Crescent, 13% of the Moon is Illuminated
Today
Waning Crescent
Sep 24
New
Oct 1
First Quarter
Oct 8
Full
Oct 15
Last Quarter

Today's Extremes

State Highs State Lows

Community

WunderPhotos

Upload Photos

1,754,833 photos uploaded!

WunderBlogs® & News

Nearby

Snow Depth

Station Depth Elevation
No new snow has been reported.

Earthquake Activity

City Distance Mag. Time & Date
No recent earthquake activity has been reported nearby.
Minimum magnitude displayed is 2.5.

Coastal Water Temperatures

Place Temperature
No Stations Reporting

Nearby Weather Stations